Altoona, Kansas
Current Conditions -  °F | °C
As of 1:52 PM on Wednesday 28 Jan 2015 (Local Time) from KCNU Reporting Station
Clear Clear  
Wind Chill: 23°   Ceiling: Unl
Heat Index: 23°   Visibility: 10mi
Dew Point:   Wind: 22mph
Humidity: 29%   Direction: 180°S
Pressure: 29.8"   Gusts: 30mph
Location:  37.52°N, 95.66°W
Report Text: KCNU 281952Z AUTO 18019G26KT 10SM CLR 23/04 A2980 RMK AO2 PK WND 19030/1942 SLP089 T02280039
Loading
Personal Weather Stations






























Interactive Weather Map New forecast layout! Learn more

10-Day Weather Forecast

Advertisements
Track Severe Weather on mobile